Wirtz, Virginia
Current Conditions -  °F | °C
As of 10:54 AM on Thursday 29 Jan 2015 (Local Time) from KROA Reporting Station
Broken Clouds Broken Clouds  
Wind Chill: 29°   Ceiling: 25000
Heat Index: 34°   Visibility: 10mi
Dew Point: 14°   Wind: 6mph
Humidity: 44%   Direction: 160°SSE
Pressure: 30.23"   Gusts: NA
Location:  37.06°N, 79.7°W
Report Text: KROA 291554Z 16005KT 10SM BKN250 01/M10 A3023 RMK AO2 SLP249 T00111100
Loading
Personal Weather Stations






























Interactive Weather Map New forecast layout! Learn more

10-Day Weather Forecast

Advertisements
Track Severe Weather on mobile